• Join FlightAware (Why Join?)
  • Login
  • US Flag 
09:58AM EDT


 

Airport Tracker/Info


-or-


 

Live Flight TrackerFlight Track Log ✈ N99910 ✈ 06-Jun-2014 ✈ KMRT - 06C

Flight Track Log - Related Links

Times and Time Zones

All times are in EDT time to prevent confusion due to time zone crossing. See the N99910 flight status page for this flight to view local times or setup timezone preferences in your user account.

Time Position Orientation Groundspeed Altitude Reporting Facility
EDT Latitude Longitude Course Direction KTS MPH feet Rate Location/Type
05:19PM 40.2386 -83.3564 278° West 99 114 2,400  Level Indianapolis Center
05:19PM 40.2408 -83.3761 278° West 91 105 3,000 660 Climbing Indianapolis Center
05:20PM 40.2417 -83.4092 272° West 95 109 3,500 420 Climbing Indianapolis Center
05:21PM 40.2428 -83.4228 276° West 96 110 3,700 480 Climbing Indianapolis Center
05:21PM 40.2447 -83.4425 277° West 97 112 4,000 540 Climbing Indianapolis Center
05:22PM 40.2492 -83.4628 286° West 96 110 4,300 540 Climbing Indianapolis Center
05:22PM 40.2533 -83.4822 286° West 101 116 4,600 540 Climbing Indianapolis Center
05:23PM 40.2578 -83.4983 290° West 96 110 4,900 540 Climbing Indianapolis Center
05:23PM 40.2606 -83.5164 281° West 98 113 5,200 540 Climbing Indianapolis Center
05:24PM 40.2644 -83.5325 288° West 96 110 5,500 540 Climbing Indianapolis Center
05:24PM 40.2656 -83.5503 275° West 96 110 5,800 480 Climbing Indianapolis Center
05:25PM 40.2694 -83.5664 288° West 96 110 6,000 180 Climbing Indianapolis Center
05:25PM 40.2722 -83.5897 279° West 113 130 6,000  Level Indianapolis Center
05:26PM 40.2778 -83.6072 293° West 103 119 6,000 60 Level Indianapolis Center
05:26PM 40.2808 -83.6297 280° West 124 143 6,100 -120 Climbing Indianapolis Center
05:27PM 40.2894 -83.6522 297° West 118 136 5,900  Descending Indianapolis Center
05:27PM 40.3033 -83.6775 306° West 138 159 6,100 180 Climbing Indianapolis Center
05:28PM 40.3181 -83.6992 312° West 132 152 6,100 -120 Level Indianapolis Center
05:28PM 40.3181 -83.7186 270° West 136 157 6,000 -120 Descending Indianapolis Center
05:29PM 40.3253 -83.7456 289° West 133 153 6,000  Level Indianapolis Center
05:29PM 40.3303 -83.7644 289° West 133 153 6,000  Level Indianapolis Center
05:30PM 40.3372 -83.7914 289° West 132 152 6,000  Level Indianapolis Center
05:30PM 40.3425 -83.8106 290° West 131 151 6,000 60 Level Indianapolis Center
05:31PM 40.3492 -83.8361 289° West 132 152 6,100 60 Climbing Indianapolis Center
05:31PM 40.3528 -83.8536 285° West 130 150 6,100 -120 Level Indianapolis Center
05:32PM 40.3603 -83.8794 291° West 132 152 6,000 -120 Descending Indianapolis Center
05:33PM 40.3644 -83.9025 283° West 130 150 6,000  Level Indianapolis Center
05:33PM 40.3742 -83.9344 292° West 132 152 6,000  Level Indianapolis Center
05:34PM 40.3769 -83.9458 288° West 128 147 6,000  Level Indianapolis Center
05:34PM 40.3853 -83.9792 288° West 132 152 6,000  Level Indianapolis Center
05:35PM 40.3869 -83.9917 280° West 133 153 6,000  Level Indianapolis Center
05:35PM 40.3975 -84.0242 293° West 132 152 6,000 60 Level Indianapolis Center
05:36PM 40.4014 -84.0356 294° West 129 148 6,100  Climbing Indianapolis Center
05:36PM 40.4083 -84.0686 285° West 132 152 6,000 -120 Descending Indianapolis Center
05:37PM 40.4111 -84.0842 283° West 133 153 6,000  Level Indianapolis Center
05:37PM 40.4194 -84.1147 290° West 131 151 6,000  Level Indianapolis Center
05:38PM 40.4228 -84.1331 283° West 134 154 6,000  Level Indianapolis Center
05:39PM 40.4350 -84.1764 290° West 132 152 6,000  Level Indianapolis Center
05:39PM 40.4436 -84.2147 286° West 131 151 6,000  Level Indianapolis Center
05:40PM 40.4561 -84.2611 290° West 132 152 6,000 -60 Level Indianapolis Center
05:42PM 40.4675 -84.3050 289° West 131 151 5,900  Descending Indianapolis Center
05:43PM 40.4786 -84.3506 288° West 132 152 6,000  Climbing Indianapolis Center
05:44PM 40.4903 -84.3956 289° West 131 151 6,000  Level Indianapolis Center
05:45PM 40.5011 -84.4403 288° West 131 151 6,000  Level Indianapolis Center
05:46PM 40.5133 -84.4953 286° West 131 151 6,000  Level Indianapolis Center
05:47PM 40.5247 -84.5375 290° West 130 150 6,100  Climbing Indianapolis Center
05:48PM 40.5347 -84.5831 286° West 129 148 6,100  Level Indianapolis Center
05:49PM 40.5472 -84.6275 290° West 129 148 6,100  Level Indianapolis Center
05:50PM 40.5575 -84.6736 286° West 129 148 6,100  Level Indianapolis Center
05:51PM 40.5711 -84.7256 289° West 129 148 6,100  Level Indianapolis Center
05:52PM 40.5811 -84.7706 286° West 129 148 6,100 -60 Level Indianapolis Center
05:53PM 40.5942 -84.8167 290° West 129 148 6,000 -60 Descending Indianapolis Center
05:54PM 40.6039 -84.8617 286° West 129 148 6,000  Level Indianapolis Center
05:55PM 40.6136 -84.9064 286° West 129 148 6,000  Level Indianapolis Center
05:56PM 40.6275 -84.9539 291° West 130 150 6,000  Level Indianapolis Center
05:57PM 40.6383 -84.9975 288° West 130 150 6,100  Climbing Indianapolis Center
05:58PM 40.6486 -85.0433 286° West 130 150 6,000 -60 Descending Indianapolis Center
05:59PM 40.6611 -85.0978 287° West 130 150 6,000  Level Indianapolis Center
06:00PM 40.6728 -85.1431 289° West 130 150 6,100  Climbing Indianapolis Center
06:01PM 40.6825 -85.1889 286° West 130 150 6,000 -60 Descending Indianapolis Center
06:03PM 40.6981 -85.2511 288° West 129 148 6,000  Level Chicago Center
06:04PM 40.7089 -85.2942 288° West 127 146 6,100  Climbing Chicago Center
06:05PM 40.7206 -85.3406 288° West 127 146 6,000  Descending Chicago Center
06:06PM 40.7336 -85.3942 288° West 132 152 6,100  Climbing Chicago Center
06:06PM 40.7411 -85.4303 285° West 130 150 6,000 -120 Descending Chicago Center
06:07PM 40.7417 -85.4314 303° West 128 147 6,000 60 Level Chicago Center
06:07PM 40.7506 -85.4689 287° West 130 150 6,100 60 Climbing Chicago Center
06:08PM 40.7556 -85.4869 290° West 130 150 6,100  Level Chicago Center
06:08PM 40.7597 -85.5133 282° West 131 151 6,100  Level Chicago Center
06:09PM 40.7647 -85.5325 289° West 130 150 6,100  Level Chicago Center
06:09PM 40.7711 -85.5631 285° West 132 152 6,100 -120 Level Chicago Center
06:10PM 40.7750 -85.5789 288° West 130 150 6,000 -120 Descending Chicago Center
06:11PM 40.7842 -85.6158 288° West 131 151 6,000  Level Chicago Center
06:11PM 40.7861 -85.6231 290° West 130 150 6,000  Level Chicago Center
06:12PM 40.7972 -85.6694 288° West 130 150 6,000  Level Chicago Center
06:13PM 40.8086 -85.7158 288° West 130 150 6,000  Level Chicago Center
06:13PM 40.8078 -85.7142 123° Southeast 130 150 6,000 60 Level Chicago Center
06:14PM 40.8197 -85.7603 289° West 133 153 6,100 60 Climbing Chicago Center
06:14PM 40.8206 -85.7697 277° West 130 150 6,100  Level Chicago Center
06:15PM 40.8308 -85.8075 290° West 132 152 6,100 -120 Level Chicago Center
06:15PM 40.8328 -85.8167 286° West 131 151 6,000 -120 Descending Chicago Center
06:16PM 40.8400 -85.8519 285° West 131 151 6,000  Level Chicago Center
06:16PM 40.8433 -85.8642 290° West 132 152 6,000  Level Chicago Center
06:17PM 40.8511 -85.8994 286° West 130 150 6,000  Level Chicago Center
06:17PM 40.8533 -85.9092 287° West 132 152 6,000  Level Chicago Center
06:18PM 40.8606 -85.9383 288° West 129 148 6,000  Level Chicago Center
06:18PM 40.8636 -85.9531 285° West 130 150 6,000  Level Chicago Center
06:19PM 40.8714 -85.9883 286° West 130 150 6,000  Level Chicago Center
06:19PM 40.8750 -86.0017 290° West 131 151 6,000  Level Chicago Center
06:20PM 40.8806 -86.0300 285° West 132 152 6,000  Level Chicago Center
06:20PM 40.8872 -86.0556 289° West 132 152 6,000  Level Chicago Center
06:21PM 40.8917 -86.0772 285° West 128 147 6,000  Level Chicago Center
06:21PM 40.8956 -86.0922 289° West 132 152 6,000  Level Chicago Center
06:22PM 40.9028 -86.1219 288° West 131 151 6,000  Level Chicago Center
06:22PM 40.9083 -86.1464 287° West 131 151 6,000  Level Chicago Center
06:23PM 40.9139 -86.1694 288° West 131 151 6,000  Level Chicago Center
06:23PM 40.9194 -86.1925 288° West 131 151 6,000  Level Chicago Center
06:24PM 40.9297 -86.2400 286° West 131 151 6,000  Level Chicago Center
06:25PM 40.9358 -86.2669 287° West 129 148 6,000  Level Chicago Center
06:25PM 40.9403 -86.2861 287° West 132 152 6,000  Level Chicago Center
06:26PM 40.9467 -86.3114 289° West 132 152 6,000 60 Level Chicago Center
06:26PM 40.9531 -86.3411 286° West 131 151 6,100  Climbing Chicago Center
06:27PM 40.9558 -86.3561 284° West 131 151 6,000 -120 Descending Chicago Center
06:27PM 40.9642 -86.3875 289° West 131 151 6,000  Level Chicago Center
06:28PM 40.9742 -86.4333 286° West 131 151 6,100  Climbing Chicago Center
06:30PM 40.9847 -86.4803 287° West 132 152 6,000 -60 Descending Chicago Center
06:31PM 40.9942 -86.5256 285° West 129 148 6,000  Level Chicago Center
06:32PM 41.0058 -86.5711 289° West 130 150 6,000  Level Chicago Center
06:33PM 41.0164 -86.6247 285° West 128 147 6,000  Level Chicago Center
06:34PM 41.0264 -86.6708 286° West 129 148 6,100  Climbing Chicago Center
06:35PM 41.0372 -86.7161 288° West 129 148 6,100  Level Chicago Center
06:36PM 41.0522 -86.7658 292° West 129 148 6,100  Level Chicago Center
06:37PM 41.0611 -86.8167 283° West 132 152 6,100  Level Chicago Center
06:38PM 41.0719 -86.8631 287° West 131 151 6,100  Level Chicago Center
06:39PM 41.0831 -86.9136 286° West 131 151 6,100 -60 Level Chicago Center
06:40PM 41.0933 -86.9603 286° West 132 152 6,000 -60 Descending Chicago Center
06:41PM 41.1039 -87.0083 286° West 129 148 6,000  Level Chicago Center
06:42PM 41.1142 -87.0542 287° West 128 147 6,000 -60 Level Chicago Center
06:43PM 41.1247 -87.0992 287° West 128 147 5,900 -60 Descending Chicago Center
06:44PM 41.1350 -87.1489 285° West 129 148 5,900  Level Chicago Center
06:45PM 41.1453 -87.1947 287° West 129 148 6,000  Climbing Chicago Center
06:46PM 41.1558 -87.2439 286° West 128 147 5,900 -60 Descending Chicago Center
06:47PM 41.1644 -87.2828 286° West 128 147 5,900  Level Chicago Center